sensor_id;sensor_type;location;lat;lon;timestamp;P1;durP1;ratioP1;P2;durP2;ratioP2
57331;SDS011;43164;50.908;18.092;2023-07-31T00:01:41;4.60;;;1.20;;
57331;SDS011;43164;50.908;18.092;2023-07-31T00:04:09;3.70;;;1.00;;
57331;SDS011;43164;50.908;18.092;2023-07-31T00:06:37;3.50;;;1.10;;
57331;SDS011;43164;50.908;18.092;2023-07-31T00:09:07;4.40;;;1.20;;
57331;SDS011;43164;50.908;18.092;2023-07-31T00:11:36;5.00;;;1.40;;
57331;SDS011;43164;50.908;18.092;2023-07-31T00:14:04;3.80;;;1.30;;
57331;SDS011;43164;50.908;18.092;2023-07-31T00:16:33;4.30;;;1.40;;
57331;SDS011;43164;50.908;18.092;2023-07-31T00:19:03;6.50;;;1.50;;
57331;SDS011;43164;50.908;18.092;2023-07-31T00:21:31;3.80;;;1.10;;
57331;SDS011;43164;50.908;18.092;2023-07-31T00:24:00;2.90;;;1.20;;
57331;SDS011;43164;50.908;18.092;2023-07-31T00:26:28;4.10;;;1.40;;
57331;SDS011;43164;50.908;18.092;2023-07-31T00:28:56;3.30;;;1.30;;
57331;SDS011;43164;50.908;18.092;2023-07-31T00:31:24;6.80;;;1.20;;
57331;SDS011;43164;50.908;18.092;2023-07-31T00:33:52;3.90;;;1.00;;
57331;SDS011;43164;50.908;18.092;2023-07-31T00:36:20;5.70;;;1.40;;
57331;SDS011;43164;50.908;18.092;2023-07-31T00:38:49;6.50;;;1.40;;
57331;SDS011;43164;50.908;18.092;2023-07-31T00:41:16;4.10;;;1.20;;
57331;SDS011;43164;50.908;18.092;2023-07-31T00:43:45;3.40;;;1.30;;
57331;SDS011;43164;50.908;18.092;2023-07-31T00:46:13;5.90;;;1.30;;
57331;SDS011;43164;50.908;18.092;2023-07-31T00:48:41;5.30;;;1.20;;
57331;SDS011;43164;50.908;18.092;2023-07-31T00:51:10;6.60;;;1.20;;
57331;SDS011;43164;50.908;18.092;2023-07-31T00:53:39;5.60;;;1.40;;
57331;SDS011;43164;50.908;18.092;2023-07-31T00:56:08;3.80;;;1.40;;
57331;SDS011;43164;50.908;18.092;2023-07-31T00:58:56;3.60;;;1.30;;
57331;SDS011;43164;50.908;18.092;2023-07-31T01:01:34;4.30;;;1.30;;
57331;SDS011;43164;50.908;18.092;2023-07-31T01:04:03;6.10;;;1.40;;
57331;SDS011;43164;50.908;18.092;2023-07-31T01:09:02;4.90;;;1.40;;
57331;SDS011;43164;50.908;18.092;2023-07-31T01:11:56;4.00;;;1.30;;
57331;SDS011;43164;50.908;18.092;2023-07-31T01:14:30;3.40;;;1.30;;
57331;SDS011;43164;50.908;18.092;2023-07-31T01:16:59;4.90;;;1.50;;
57331;SDS011;43164;50.908;18.092;2023-07-31T01:19:27;4.90;;;1.50;;
57331;SDS011;43164;50.908;18.092;2023-07-31T01:22:02;5.40;;;1.20;;
57331;SDS011;43164;50.908;18.092;2023-07-31T01:30:37;4.50;;;1.30;;
57331;SDS011;43164;50.908;18.092;2023-07-31T01:33:08;8.20;;;1.40;;
57331;SDS011;43164;50.908;18.092;2023-07-31T01:35:37;5.00;;;1.40;;
57331;SDS011;43164;50.908;18.092;2023-07-31T01:38:04;5.10;;;1.50;;
57331;SDS011;43164;50.908;18.092;2023-07-31T01:40:33;3.60;;;1.40;;
57331;SDS011;43164;50.908;18.092;2023-07-31T01:43:01;4.80;;;1.60;;
57331;SDS011;43164;50.908;18.092;2023-07-31T01:45:29;5.00;;;1.60;;
57331;SDS011;43164;50.908;18.092;2023-07-31T01:47:57;4.80;;;1.50;;
57331;SDS011;43164;50.908;18.092;2023-07-31T01:50:25;4.00;;;1.40;;
57331;SDS011;43164;50.908;18.092;2023-07-31T01:52:53;5.80;;;1.50;;
57331;SDS011;43164;50.908;18.092;2023-07-31T01:55:22;6.70;;;1.70;;
57331;SDS011;43164;50.908;18.092;2023-07-31T01:57:51;4.60;;;1.40;;
57331;SDS011;43164;50.908;18.092;2023-07-31T02:00:19;6.00;;;1.60;;
57331;SDS011;43164;50.908;18.092;2023-07-31T02:02:47;5.60;;;1.50;;
57331;SDS011;43164;50.908;18.092;2023-07-31T02:05:16;5.10;;;1.50;;
57331;SDS011;43164;50.908;18.092;2023-07-31T02:07:44;4.50;;;1.50;;
57331;SDS011;43164;50.908;18.092;2023-07-31T02:10:12;6.50;;;1.60;;
57331;SDS011;43164;50.908;18.092;2023-07-31T02:12:41;4.40;;;1.50;;
57331;SDS011;43164;50.908;18.092;2023-07-31T02:15:09;4.30;;;1.50;;
57331;SDS011;43164;50.908;18.092;2023-07-31T02:17:37;4.40;;;1.40;;
57331;SDS011;43164;50.908;18.092;2023-07-31T02:20:06;4.30;;;1.70;;
57331;SDS011;43164;50.908;18.092;2023-07-31T02:22:34;4.70;;;1.50;;
57331;SDS011;43164;50.908;18.092;2023-07-31T02:25:02;7.70;;;1.80;;
57331;SDS011;43164;50.908;18.092;2023-07-31T02:27:31;4.60;;;1.60;;
57331;SDS011;43164;50.908;18.092;2023-07-31T02:29:59;5.00;;;1.50;;
57331;SDS011;43164;50.908;18.092;2023-07-31T02:32:27;4.70;;;1.70;;
57331;SDS011;43164;50.908;18.092;2023-07-31T02:34:55;3.80;;;1.70;;
57331;SDS011;43164;50.908;18.092;2023-07-31T02:37:24;4.40;;;1.50;;
57331;SDS011;43164;50.908;18.092;2023-07-31T02:39:52;5.20;;;1.70;;
57331;SDS011;43164;50.908;18.092;2023-07-31T02:42:20;4.40;;;1.70;;
57331;SDS011;43164;50.908;18.092;2023-07-31T02:44:49;6.10;;;1.60;;
57331;SDS011;43164;50.908;18.092;2023-07-31T02:47:25;5.00;;;1.50;;
57331;SDS011;43164;50.908;18.092;2023-07-31T02:49:53;7.20;;;1.60;;
57331;SDS011;43164;50.908;18.092;2023-07-31T02:52:21;4.60;;;1.80;;
57331;SDS011;43164;50.908;18.092;2023-07-31T02:54:49;5.40;;;1.60;;
57331;SDS011;43164;50.908;18.092;2023-07-31T02:57:17;8.00;;;1.90;;
57331;SDS011;43164;50.908;18.092;2023-07-31T02:59:44;3.80;;;1.70;;
57331;SDS011;43164;50.908;18.092;2023-07-31T03:02:12;5.10;;;1.70;;
57331;SDS011;43164;50.908;18.092;2023-07-31T03:04:40;5.10;;;1.80;;
57331;SDS011;43164;50.908;18.092;2023-07-31T03:07:08;5.70;;;1.90;;
57331;SDS011;43164;50.908;18.092;2023-07-31T03:09:37;5.10;;;1.80;;
57331;SDS011;43164;50.908;18.092;2023-07-31T03:14:39;5.80;;;2.20;;
57331;SDS011;43164;50.908;18.092;2023-07-31T03:17:07;4.70;;;1.90;;
57331;SDS011;43164;50.908;18.092;2023-07-31T03:19:35;5.40;;;1.60;;
57331;SDS011;43164;50.908;18.092;2023-07-31T03:25:08;6.90;;;1.80;;
57331;SDS011;43164;50.908;18.092;2023-07-31T03:34:18;6.40;;;1.70;;
57331;SDS011;43164;50.908;18.092;2023-07-31T03:36:56;6.30;;;1.80;;
57331;SDS011;43164;50.908;18.092;2023-07-31T03:42:16;5.30;;;2.00;;
57331;SDS011;43164;50.908;18.092;2023-07-31T03:44:45;3.80;;;1.70;;
57331;SDS011;43164;50.908;18.092;2023-07-31T03:47:19;4.10;;;1.70;;
57331;SDS011;43164;50.908;18.092;2023-07-31T03:49:49;4.50;;;1.40;;
57331;SDS011;43164;50.908;18.092;2023-07-31T03:52:23;4.70;;;1.90;;
57331;SDS011;43164;50.908;18.092;2023-07-31T03:54:52;5.10;;;1.70;;
57331;SDS011;43164;50.908;18.092;2023-07-31T03:57:20;6.60;;;1.90;;
57331;SDS011;43164;50.908;18.092;2023-07-31T03:59:49;5.60;;;1.60;;
57331;SDS011;43164;50.908;18.092;2023-07-31T04:02:16;4.40;;;1.50;;
57331;SDS011;43164;50.908;18.092;2023-07-31T04:04:47;7.10;;;1.50;;
57331;SDS011;43164;50.908;18.092;2023-07-31T04:07:24;7.80;;;1.70;;
57331;SDS011;43164;50.908;18.092;2023-07-31T04:09:52;7.50;;;1.70;;
57331;SDS011;43164;50.908;18.092;2023-07-31T04:12:20;11.00;;;1.80;;
57331;SDS011;43164;50.908;18.092;2023-07-31T04:14:49;7.30;;;1.70;;
57331;SDS011;43164;50.908;18.092;2023-07-31T04:17:20;7.90;;;1.30;;
57331;SDS011;43164;50.908;18.092;2023-07-31T04:19:53;4.20;;;1.10;;
57331;SDS011;43164;50.908;18.092;2023-07-31T04:22:27;3.80;;;1.40;;
57331;SDS011;43164;50.908;18.092;2023-07-31T04:24:55;7.10;;;1.60;;
57331;SDS011;43164;50.908;18.092;2023-07-31T04:27:29;4.20;;;1.20;;
57331;SDS011;43164;50.908;18.092;2023-07-31T04:29:59;7.20;;;1.30;;
57331;SDS011;43164;50.908;18.092;2023-07-31T04:32:32;3.90;;;1.20;;
57331;SDS011;43164;50.908;18.092;2023-07-31T04:35:04;5.20;;;1.20;;
57331;SDS011;43164;50.908;18.092;2023-07-31T04:37:40;7.20;;;1.30;;
57331;SDS011;43164;50.908;18.092;2023-07-31T04:40:09;7.20;;;1.30;;
57331;SDS011;43164;50.908;18.092;2023-07-31T04:42:47;6.30;;;1.30;;
57331;SDS011;43164;50.908;18.092;2023-07-31T04:45:16;5.30;;;1.30;;
57331;SDS011;43164;50.908;18.092;2023-07-31T04:47:52;6.00;;;1.50;;
57331;SDS011;43164;50.908;18.092;2023-07-31T04:50:20;5.20;;;1.30;;
57331;SDS011;43164;50.908;18.092;2023-07-31T04:52:56;4.20;;;1.40;;
57331;SDS011;43164;50.908;18.092;2023-07-31T04:55:30;5.70;;;1.40;;
57331;SDS011;43164;50.908;18.092;2023-07-31T04:58:11;4.10;;;1.20;;
57331;SDS011;43164;50.908;18.092;2023-07-31T05:03:58;4.40;;;1.50;;
57331;SDS011;43164;50.908;18.092;2023-07-31T05:06:27;7.00;;;1.10;;
57331;SDS011;43164;50.908;18.092;2023-07-31T05:08:55;5.00;;;1.10;;
57331;SDS011;43164;50.908;18.092;2023-07-31T05:11:23;4.50;;;1.10;;
57331;SDS011;43164;50.908;18.092;2023-07-31T05:13:52;6.80;;;1.10;;
57331;SDS011;43164;50.908;18.092;2023-07-31T05:16:30;4.20;;;0.90;;
57331;SDS011;43164;50.908;18.092;2023-07-31T05:19:00;5.50;;;0.90;;
57331;SDS011;43164;50.908;18.092;2023-07-31T05:21:43;5.60;;;0.90;;
57331;SDS011;43164;50.908;18.092;2023-07-31T05:24:22;6.30;;;1.00;;
57331;SDS011;43164;50.908;18.092;2023-07-31T05:26:55;9.00;;;1.00;;
57331;SDS011;43164;50.908;18.092;2023-07-31T05:31:59;3.40;;;0.90;;
57331;SDS011;43164;50.908;18.092;2023-07-31T05:34:34;5.30;;;1.00;;
57331;SDS011;43164;50.908;18.092;2023-07-31T05:37:06;4.50;;;0.70;;
57331;SDS011;43164;50.908;18.092;2023-07-31T05:39:36;5.40;;;0.90;;
57331;SDS011;43164;50.908;18.092;2023-07-31T05:42:13;4.00;;;0.90;;
57331;SDS011;43164;50.908;18.092;2023-07-31T05:44:46;6.90;;;0.90;;
57331;SDS011;43164;50.908;18.092;2023-07-31T05:47:23;5.00;;;0.70;;
57331;SDS011;43164;50.908;18.092;2023-07-31T05:49:59;6.70;;;0.80;;
57331;SDS011;43164;50.908;18.092;2023-07-31T05:52:37;4.40;;;0.70;;
57331;SDS011;43164;50.908;18.092;2023-07-31T05:55:14;4.30;;;0.80;;
57331;SDS011;43164;50.908;18.092;2023-07-31T05:57:50;2.60;;;0.80;;
57331;SDS011;43164;50.908;18.092;2023-07-31T06:00:25;3.60;;;0.80;;
57331;SDS011;43164;50.908;18.092;2023-07-31T06:13:00;7.80;;;0.80;;
57331;SDS011;43164;50.908;18.092;2023-07-31T06:15:34;5.10;;;0.70;;
57331;SDS011;43164;50.908;18.092;2023-07-31T06:18:05;4.90;;;0.70;;
57331;SDS011;43164;50.908;18.092;2023-07-31T06:20:36;6.20;;;0.70;;
57331;SDS011;43164;50.908;18.092;2023-07-31T06:23:13;3.90;;;0.60;;
57331;SDS011;43164;50.908;18.092;2023-07-31T06:25:49;5.50;;;0.90;;
57331;SDS011;43164;50.908;18.092;2023-07-31T06:32:10;5.90;;;0.90;;
57331;SDS011;43164;50.908;18.092;2023-07-31T06:42:24;5.20;;;0.60;;
57331;SDS011;43164;50.908;18.092;2023-07-31T06:45:02;4.00;;;0.60;;
57331;SDS011;43164;50.908;18.092;2023-07-31T06:47:34;5.20;;;1.00;;
57331;SDS011;43164;50.908;18.092;2023-07-31T06:50:07;7.60;;;0.70;;
57331;SDS011;43164;50.908;18.092;2023-07-31T06:52:42;4.60;;;0.70;;
57331;SDS011;43164;50.908;18.092;2023-07-31T06:55:18;7.00;;;0.80;;
57331;SDS011;43164;50.908;18.092;2023-07-31T06:57:56;4.10;;;0.60;;
57331;SDS011;43164;50.908;18.092;2023-07-31T07:00:26;3.30;;;0.60;;
57331;SDS011;43164;50.908;18.092;2023-07-31T07:02:54;5.10;;;0.60;;
57331;SDS011;43164;50.908;18.092;2023-07-31T07:05:23;5.20;;;0.80;;
57331;SDS011;43164;50.908;18.092;2023-07-31T07:07:58;3.50;;;0.80;;
57331;SDS011;43164;50.908;18.092;2023-07-31T07:11:04;4.30;;;0.80;;
57331;SDS011;43164;50.908;18.092;2023-07-31T07:14:13;4.40;;;0.70;;
57331;SDS011;43164;50.908;18.092;2023-07-31T07:16:55;4.90;;;0.60;;
57331;SDS011;43164;50.908;18.092;2023-07-31T07:19:30;3.10;;;0.60;;
57331;SDS011;43164;50.908;18.092;2023-07-31T07:22:00;3.20;;;0.70;;
57331;SDS011;43164;50.908;18.092;2023-07-31T07:24:29;3.80;;;0.70;;
57331;SDS011;43164;50.908;18.092;2023-07-31T07:26:58;2.90;;;0.70;;
57331;SDS011;43164;50.908;18.092;2023-07-31T07:29:27;5.50;;;0.60;;
57331;SDS011;43164;50.908;18.092;2023-07-31T07:31:55;4.50;;;0.50;;
57331;SDS011;43164;50.908;18.092;2023-07-31T07:34:27;2.30;;;0.50;;
57331;SDS011;43164;50.908;18.092;2023-07-31T07:36:55;5.80;;;0.70;;
57331;SDS011;43164;50.908;18.092;2023-07-31T07:39:23;2.90;;;0.60;;
57331;SDS011;43164;50.908;18.092;2023-07-31T07:41:53;3.70;;;0.60;;
57331;SDS011;43164;50.908;18.092;2023-07-31T07:44:22;4.30;;;0.60;;
57331;SDS011;43164;50.908;18.092;2023-07-31T07:46:50;3.80;;;0.70;;
57331;SDS011;43164;50.908;18.092;2023-07-31T07:52:13;7.80;;;0.70;;
57331;SDS011;43164;50.908;18.092;2023-07-31T07:54:51;3.00;;;0.60;;
57331;SDS011;43164;50.908;18.092;2023-07-31T07:57:23;2.30;;;0.70;;
57331;SDS011;43164;50.908;18.092;2023-07-31T07:59:53;5.00;;;0.80;;
57331;SDS011;43164;50.908;18.092;2023-07-31T08:02:21;4.60;;;0.70;;
57331;SDS011;43164;50.908;18.092;2023-07-31T08:04:53;4.50;;;0.70;;
57331;SDS011;43164;50.908;18.092;2023-07-31T08:07:28;5.90;;;0.70;;
57331;SDS011;43164;50.908;18.092;2023-07-31T08:10:01;3.10;;;0.60;;
57331;SDS011;43164;50.908;18.092;2023-07-31T08:12:31;5.60;;;0.80;;
57331;SDS011;43164;50.908;18.092;2023-07-31T08:15:01;7.20;;;0.80;;
57331;SDS011;43164;50.908;18.092;2023-07-31T08:25:00;7.30;;;0.80;;
57331;SDS011;43164;50.908;18.092;2023-07-31T08:27:38;4.40;;;0.60;;
57331;SDS011;43164;50.908;18.092;2023-07-31T08:33:51;5.90;;;0.80;;
57331;SDS011;43164;50.908;18.092;2023-07-31T08:36:47;3.40;;;0.50;;
57331;SDS011;43164;50.908;18.092;2023-07-31T08:39:17;4.80;;;0.70;;
57331;SDS011;43164;50.908;18.092;2023-07-31T08:41:48;3.80;;;0.60;;
57331;SDS011;43164;50.908;18.092;2023-07-31T08:44:21;3.60;;;0.80;;
57331;SDS011;43164;50.908;18.092;2023-07-31T08:47:01;4.80;;;0.80;;
57331;SDS011;43164;50.908;18.092;2023-07-31T08:49:30;2.90;;;0.50;;
57331;SDS011;43164;50.908;18.092;2023-07-31T08:52:13;6.10;;;0.60;;
57331;SDS011;43164;50.908;18.092;2023-07-31T08:54:45;5.70;;;0.70;;
57331;SDS011;43164;50.908;18.092;2023-07-31T08:57:26;6.50;;;0.80;;
57331;SDS011;43164;50.908;18.092;2023-07-31T09:00:18;1.90;;;0.70;;
57331;SDS011;43164;50.908;18.092;2023-07-31T09:10:45;4.60;;;0.70;;
57331;SDS011;43164;50.908;18.092;2023-07-31T09:16:58;1.80;;;0.50;;
57331;SDS011;43164;50.908;18.092;2023-07-31T09:23:17;3.20;;;0.60;;
57331;SDS011;43164;50.908;18.092;2023-07-31T09:30:08;2.50;;;0.50;;
57331;SDS011;43164;50.908;18.092;2023-07-31T09:36:32;3.10;;;0.70;;
57331;SDS011;43164;50.908;18.092;2023-07-31T09:42:39;5.10;;;0.60;;
57331;SDS011;43164;50.908;18.092;2023-07-31T09:45:17;2.90;;;0.50;;
57331;SDS011;43164;50.908;18.092;2023-07-31T09:48:14;3.60;;;0.50;;
57331;SDS011;43164;50.908;18.092;2023-07-31T09:50:53;4.90;;;0.60;;
57331;SDS011;43164;50.908;18.092;2023-07-31T09:53:49;4.50;;;0.60;;
57331;SDS011;43164;50.908;18.092;2023-07-31T09:56:25;3.90;;;0.80;;
57331;SDS011;43164;50.908;18.092;2023-07-31T09:59:04;3.40;;;0.60;;
57331;SDS011;43164;50.908;18.092;2023-07-31T10:01:33;3.10;;;0.70;;
57331;SDS011;43164;50.908;18.092;2023-07-31T10:04:11;5.50;;;0.80;;
57331;SDS011;43164;50.908;18.092;2023-07-31T10:06:53;4.00;;;0.50;;
57331;SDS011;43164;50.908;18.092;2023-07-31T10:09:29;3.70;;;0.40;;
57331;SDS011;43164;50.908;18.092;2023-07-31T10:12:04;2.20;;;0.50;;
57331;SDS011;43164;50.908;18.092;2023-07-31T10:14:50;3.40;;;0.50;;
57331;SDS011;43164;50.908;18.092;2023-07-31T10:17:40;5.80;;;0.60;;
57331;SDS011;43164;50.908;18.092;2023-07-31T10:20:16;5.20;;;0.60;;
57331;SDS011;43164;50.908;18.092;2023-07-31T10:22:52;3.30;;;0.50;;
57331;SDS011;43164;50.908;18.092;2023-07-31T10:25:29;2.80;;;0.50;;
57331;SDS011;43164;50.908;18.092;2023-07-31T10:28:10;2.00;;;0.40;;
57331;SDS011;43164;50.908;18.092;2023-07-31T10:31:15;2.90;;;0.40;;
57331;SDS011;43164;50.908;18.092;2023-07-31T10:33:52;2.90;;;0.40;;
57331;SDS011;43164;50.908;18.092;2023-07-31T10:36:22;4.40;;;0.50;;
57331;SDS011;43164;50.908;18.092;2023-07-31T10:39:03;2.30;;;0.50;;
57331;SDS011;43164;50.908;18.092;2023-07-31T10:41:35;4.90;;;0.70;;
57331;SDS011;43164;50.908;18.092;2023-07-31T10:44:04;3.80;;;0.60;;
57331;SDS011;43164;50.908;18.092;2023-07-31T10:46:36;3.30;;;0.40;;
57331;SDS011;43164;50.908;18.092;2023-07-31T10:49:06;3.00;;;0.40;;
57331;SDS011;43164;50.908;18.092;2023-07-31T10:51:38;3.20;;;0.60;;
57331;SDS011;43164;50.908;18.092;2023-07-31T10:54:17;4.30;;;0.60;;
57331;SDS011;43164;50.908;18.092;2023-07-31T10:56:51;3.70;;;0.60;;
57331;SDS011;43164;50.908;18.092;2023-07-31T10:59:26;5.80;;;0.60;;
57331;SDS011;43164;50.908;18.092;2023-07-31T11:01:57;1.60;;;0.50;;
57331;SDS011;43164;50.908;18.092;2023-07-31T11:04:35;1.70;;;0.50;;
57331;SDS011;43164;50.908;18.092;2023-07-31T11:07:11;2.60;;;0.60;;
57331;SDS011;43164;50.908;18.092;2023-07-31T11:09:43;4.30;;;0.40;;
57331;SDS011;43164;50.908;18.092;2023-07-31T11:12:27;3.60;;;0.70;;
57331;SDS011;43164;50.908;18.092;2023-07-31T11:14:59;3.80;;;0.60;;
57331;SDS011;43164;50.908;18.092;2023-07-31T11:17:30;3.20;;;0.60;;
57331;SDS011;43164;50.908;18.092;2023-07-31T11:20:01;5.60;;;0.60;;
57331;SDS011;43164;50.908;18.092;2023-07-31T11:22:32;3.80;;;0.50;;
57331;SDS011;43164;50.908;18.092;2023-07-31T11:25:03;3.30;;;0.70;;
57331;SDS011;43164;50.908;18.092;2023-07-31T11:27:38;2.20;;;0.50;;
57331;SDS011;43164;50.908;18.092;2023-07-31T11:30:10;4.10;;;0.60;;
57331;SDS011;43164;50.908;18.092;2023-07-31T11:32:40;2.40;;;0.50;;
57331;SDS011;43164;50.908;18.092;2023-07-31T11:35:12;2.50;;;0.50;;
57331;SDS011;43164;50.908;18.092;2023-07-31T11:37:47;2.30;;;0.40;;
57331;SDS011;43164;50.908;18.092;2023-07-31T11:40:26;1.40;;;0.30;;
57331;SDS011;43164;50.908;18.092;2023-07-31T11:43:03;1.50;;;0.40;;
57331;SDS011;43164;50.908;18.092;2023-07-31T11:45:33;4.60;;;0.50;;
57331;SDS011;43164;50.908;18.092;2023-07-31T11:50:35;1.40;;;0.40;;
57331;SDS011;43164;50.908;18.092;2023-07-31T11:53:07;3.30;;;0.60;;
57331;SDS011;43164;50.908;18.092;2023-07-31T11:55:59;2.30;;;0.70;;
57331;SDS011;43164;50.908;18.092;2023-07-31T11:58:34;3.60;;;0.50;;
57331;SDS011;43164;50.908;18.092;2023-07-31T12:01:04;4.60;;;0.90;;
57331;SDS011;43164;50.908;18.092;2023-07-31T12:03:34;1.50;;;0.40;;
57331;SDS011;43164;50.908;18.092;2023-07-31T12:06:04;2.10;;;0.60;;
57331;SDS011;43164;50.908;18.092;2023-07-31T12:08:38;4.20;;;0.50;;
57331;SDS011;43164;50.908;18.092;2023-07-31T12:11:10;3.20;;;0.60;;
57331;SDS011;43164;50.908;18.092;2023-07-31T12:14:04;2.70;;;0.70;;
57331;SDS011;43164;50.908;18.092;2023-07-31T12:16:38;2.40;;;0.50;;
57331;SDS011;43164;50.908;18.092;2023-07-31T12:19:11;2.80;;;0.60;;
57331;SDS011;43164;50.908;18.092;2023-07-31T12:21:46;2.80;;;0.60;;
57331;SDS011;43164;50.908;18.092;2023-07-31T12:25:07;2.40;;;0.60;;
57331;SDS011;43164;50.908;18.092;2023-07-31T12:27:53;2.90;;;0.50;;
57331;SDS011;43164;50.908;18.092;2023-07-31T12:30:35;1.80;;;0.60;;
57331;SDS011;43164;50.908;18.092;2023-07-31T12:37:01;3.70;;;0.70;;
57331;SDS011;43164;50.908;18.092;2023-07-31T12:39:30;2.30;;;0.60;;
57331;SDS011;43164;50.908;18.092;2023-07-31T12:42:00;3.70;;;0.70;;
57331;SDS011;43164;50.908;18.092;2023-07-31T12:44:29;2.20;;;0.60;;
57331;SDS011;43164;50.908;18.092;2023-07-31T12:47:13;2.50;;;0.70;;
57331;SDS011;43164;50.908;18.092;2023-07-31T12:49:42;2.20;;;0.80;;
57331;SDS011;43164;50.908;18.092;2023-07-31T12:52:11;2.10;;;0.70;;
57331;SDS011;43164;50.908;18.092;2023-07-31T12:54:40;2.30;;;0.60;;
57331;SDS011;43164;50.908;18.092;2023-07-31T12:57:08;2.60;;;0.80;;
57331;SDS011;43164;50.908;18.092;2023-07-31T12:59:37;2.00;;;0.60;;
57331;SDS011;43164;50.908;18.092;2023-07-31T13:02:06;3.10;;;0.70;;
57331;SDS011;43164;50.908;18.092;2023-07-31T13:04:35;3.50;;;0.70;;
57331;SDS011;43164;50.908;18.092;2023-07-31T13:07:17;3.50;;;0.70;;
57331;SDS011;43164;50.908;18.092;2023-07-31T13:10:13;4.80;;;0.80;;
57331;SDS011;43164;50.908;18.092;2023-07-31T13:12:47;3.50;;;0.70;;
57331;SDS011;43164;50.908;18.092;2023-07-31T13:15:25;4.50;;;0.90;;
57331;SDS011;43164;50.908;18.092;2023-07-31T13:18:04;2.60;;;0.70;;
57331;SDS011;43164;50.908;18.092;2023-07-31T13:20:38;3.70;;;0.80;;
57331;SDS011;43164;50.908;18.092;2023-07-31T13:23:16;3.70;;;0.70;;
57331;SDS011;43164;50.908;18.092;2023-07-31T13:29:10;6.40;;;0.70;;
57331;SDS011;43164;50.908;18.092;2023-07-31T13:31:39;3.80;;;0.90;;
57331;SDS011;43164;50.908;18.092;2023-07-31T13:34:08;3.20;;;0.70;;
57331;SDS011;43164;50.908;18.092;2023-07-31T13:36:42;2.30;;;0.80;;
57331;SDS011;43164;50.908;18.092;2023-07-31T13:39:14;2.30;;;0.80;;
57331;SDS011;43164;50.908;18.092;2023-07-31T13:41:43;3.70;;;1.00;;
57331;SDS011;43164;50.908;18.092;2023-07-31T13:44:12;2.30;;;0.80;;
57331;SDS011;43164;50.908;18.092;2023-07-31T13:46:40;1.90;;;0.90;;
57331;SDS011;43164;50.908;18.092;2023-07-31T13:49:13;3.30;;;0.80;;
57331;SDS011;43164;50.908;18.092;2023-07-31T13:51:42;5.80;;;0.90;;
57331;SDS011;43164;50.908;18.092;2023-07-31T13:54:13;3.10;;;0.70;;
57331;SDS011;43164;50.908;18.092;2023-07-31T13:56:42;3.00;;;0.90;;
57331;SDS011;43164;50.908;18.092;2023-07-31T13:59:11;4.40;;;0.80;;
57331;SDS011;43164;50.908;18.092;2023-07-31T14:01:40;3.20;;;0.80;;
57331;SDS011;43164;50.908;18.092;2023-07-31T14:04:09;5.70;;;1.00;;
57331;SDS011;43164;50.908;18.092;2023-07-31T14:06:39;3.30;;;0.70;;
57331;SDS011;43164;50.908;18.092;2023-07-31T14:09:10;3.70;;;0.80;;
57331;SDS011;43164;50.908;18.092;2023-07-31T14:11:49;4.30;;;0.80;;
57331;SDS011;43164;50.908;18.092;2023-07-31T14:14:17;4.20;;;1.00;;
57331;SDS011;43164;50.908;18.092;2023-07-31T14:16:53;6.40;;;1.00;;
57331;SDS011;43164;50.908;18.092;2023-07-31T14:19:23;3.90;;;1.00;;
57331;SDS011;43164;50.908;18.092;2023-07-31T14:21:58;3.60;;;1.00;;
57331;SDS011;43164;50.908;18.092;2023-07-31T14:24:28;3.30;;;1.00;;
57331;SDS011;43164;50.908;18.092;2023-07-31T14:26:58;2.70;;;1.20;;
57331;SDS011;43164;50.908;18.092;2023-07-31T14:29:26;5.20;;;1.00;;
57331;SDS011;43164;50.908;18.092;2023-07-31T14:31:56;3.90;;;1.20;;
57331;SDS011;43164;50.908;18.092;2023-07-31T14:34:28;4.50;;;1.00;;
57331;SDS011;43164;50.908;18.092;2023-07-31T14:36:58;3.20;;;1.10;;
57331;SDS011;43164;50.908;18.092;2023-07-31T14:39:36;4.20;;;1.60;;
57331;SDS011;43164;50.908;18.092;2023-07-31T14:42:06;4.00;;;1.00;;
57331;SDS011;43164;50.908;18.092;2023-07-31T14:44:46;4.20;;;1.10;;
57331;SDS011;43164;50.908;18.092;2023-07-31T14:47:29;3.40;;;1.20;;
57331;SDS011;43164;50.908;18.092;2023-07-31T14:50:00;4.90;;;1.40;;
57331;SDS011;43164;50.908;18.092;2023-07-31T14:52:32;4.90;;;1.30;;
57331;SDS011;43164;50.908;18.092;2023-07-31T14:55:19;5.10;;;1.30;;
57331;SDS011;43164;50.908;18.092;2023-07-31T14:57:59;4.70;;;1.10;;
57331;SDS011;43164;50.908;18.092;2023-07-31T15:04:10;3.70;;;1.20;;
57331;SDS011;43164;50.908;18.092;2023-07-31T15:06:52;4.70;;;1.50;;
57331;SDS011;43164;50.908;18.092;2023-07-31T15:09:21;4.20;;;1.30;;
57331;SDS011;43164;50.908;18.092;2023-07-31T15:12:25;2.90;;;1.40;;
57331;SDS011;43164;50.908;18.092;2023-07-31T15:14:54;4.50;;;1.30;;
57331;SDS011;43164;50.908;18.092;2023-07-31T15:17:30;5.70;;;1.50;;
57331;SDS011;43164;50.908;18.092;2023-07-31T15:20:00;4.10;;;1.20;;
57331;SDS011;43164;50.908;18.092;2023-07-31T15:22:49;5.30;;;1.60;;
57331;SDS011;43164;50.908;18.092;2023-07-31T15:25:17;3.10;;;1.10;;
57331;SDS011;43164;50.908;18.092;2023-07-31T15:27:47;4.40;;;1.40;;
57331;SDS011;43164;50.908;18.092;2023-07-31T15:30:17;3.70;;;1.20;;
57331;SDS011;43164;50.908;18.092;2023-07-31T15:32:54;3.20;;;1.20;;
57331;SDS011;43164;50.908;18.092;2023-07-31T15:35:23;3.20;;;1.10;;
57331;SDS011;43164;50.908;18.092;2023-07-31T15:38:12;5.80;;;1.30;;
57331;SDS011;43164;50.908;18.092;2023-07-31T15:40:44;6.90;;;1.10;;
57331;SDS011;43164;50.908;18.092;2023-07-31T15:46:02;4.70;;;1.20;;
57331;SDS011;43164;50.908;18.092;2023-07-31T15:52:42;4.40;;;1.30;;
57331;SDS011;43164;50.908;18.092;2023-07-31T15:55:13;5.20;;;1.40;;
57331;SDS011;43164;50.908;18.092;2023-07-31T15:57:45;3.50;;;1.20;;
57331;SDS011;43164;50.908;18.092;2023-07-31T16:00:15;5.40;;;1.20;;
57331;SDS011;43164;50.908;18.092;2023-07-31T16:02:47;4.40;;;1.40;;
57331;SDS011;43164;50.908;18.092;2023-07-31T16:05:17;4.60;;;1.10;;
57331;SDS011;43164;50.908;18.092;2023-07-31T16:11:31;5.50;;;1.20;;
57331;SDS011;43164;50.908;18.092;2023-07-31T16:16:59;4.20;;;1.10;;
57331;SDS011;43164;50.908;18.092;2023-07-31T16:19:28;5.80;;;1.30;;
57331;SDS011;43164;50.908;18.092;2023-07-31T16:21:57;5.20;;;1.20;;
57331;SDS011;43164;50.908;18.092;2023-07-31T16:28:08;4.10;;;0.90;;
57331;SDS011;43164;50.908;18.092;2023-07-31T16:33:45;3.40;;;0.80;;
57331;SDS011;43164;50.908;18.092;2023-07-31T16:39:45;4.00;;;1.00;;
57331;SDS011;43164;50.908;18.092;2023-07-31T16:42:27;5.40;;;1.00;;
57331;SDS011;43164;50.908;18.092;2023-07-31T16:45:18;4.40;;;1.00;;
57331;SDS011;43164;50.908;18.092;2023-07-31T16:47:54;3.50;;;0.90;;
57331;SDS011;43164;50.908;18.092;2023-07-31T16:57:14;6.20;;;1.00;;
57331;SDS011;43164;50.908;18.092;2023-07-31T16:59:56;5.20;;;0.90;;
57331;SDS011;43164;50.908;18.092;2023-07-31T17:38:57;3.60;;;0.80;;
57331;SDS011;43164;50.908;18.092;2023-07-31T17:41:29;4.70;;;0.90;;
57331;SDS011;43164;50.908;18.092;2023-07-31T17:43:58;4.30;;;0.90;;
57331;SDS011;43164;50.908;18.092;2023-07-31T17:46:43;2.30;;;0.80;;
57331;SDS011;43164;50.908;18.092;2023-07-31T17:56:50;3.90;;;0.70;;
57331;SDS011;43164;50.908;18.092;2023-07-31T18:03:20;3.00;;;0.80;;
57331;SDS011;43164;50.908;18.092;2023-07-31T18:32:17;4.60;;;0.90;;
57331;SDS011;43164;50.908;18.092;2023-07-31T18:42:09;4.10;;;0.80;;
57331;SDS011;43164;50.908;18.092;2023-07-31T18:44:59;4.00;;;0.80;;
57331;SDS011;43164;50.908;18.092;2023-07-31T18:47:28;4.70;;;1.20;;